Stations météo

réclame
Mon MeteoGroup
Ilundain, Espagne (8089): Température de l'air & dewpoint: 12.01.2019 12:00:00 - 18.01.2019 12:00:00 (CET)Ilundain, Espagne (8089): Vitesse du vent & gusts: 12.01.2019 12:00:00 - 18.01.2019 12:00:00 (CET)Ilundain, Espagne (8089): Direction du vent: 12.01.2019 12:00:00 - 18.01.2019 12:00:00 (CET)Ilundain, Espagne (8089): Quantités de précipitations: 12.01.2019 12:00:00 - 18.01.2019 12:00:00 (CET)
Date & Time tt [°C] td [°C] ff [km/h] ff [knt] fx [km/h] fx [knt] dd rr [mm]
18.01.2019 12:00:00 4,3 3,4 2 1 5 3 W 0,0
18.01.2019 11:00:00 3,7 3,6 1 0 5 3 SW 0,0
18.01.2019 10:00:00 3,1 3,0 1 0 5 3 WNW 0,0
18.01.2019 09:00:00 1,2 1,1 4 2 6 3 E 0,0
18.01.2019 08:00:00 1,8 1,7 3 2 6 3 SSE 0,0
18.01.2019 07:00:00 1,1 1,1 4 2 5 3 ESE -
18.01.2019 06:00:00 1,8 1,7 4 2 6 4 E 0,0
18.01.2019 05:00:00 1,9 1,7 0 0 4 2 SSW 0,0
18.01.2019 04:00:00 1,7 1,5 3 2 7 4 ESE 0,0
18.01.2019 03:00:00 0,7 0,6 1 1 5 3 E 0,0
18.01.2019 02:00:00 1,2 1,1 4 2 6 3 E 0,0
18.01.2019 01:00:00 0,8 0,6 1 1 7 4 SE -
18.01.2019 00:00:00 0,9 0,9 1 1 5 3 E 0,0
17.01.2019 23:00:00 2,5 2,3 0 0 5 3 S 0,0
17.01.2019 22:00:00 2,8 2,3 3 2 9 5 ESE 0,0
17.01.2019 21:00:00 4,1 3,0 4 2 10 5 NW 0,0
17.01.2019 20:00:00 4,8 3,2 6 3 11 6 W 0,0
17.01.2019 19:00:00 5,4 3,0 5 3 10 5 N -
17.01.2019 18:00:00 5,6 2,5 7 4 19 11 N 0,0
17.01.2019 17:00:00 6,5 3,2 10 6 26 14 NNW 0,0
17.01.2019 16:00:00 6,2 3,6 9 5 23 12 N 0,0
17.01.2019 15:00:00 8,5 1,5 14 8 27 14 NNW 0,0
17.01.2019 14:00:00 8,1 3,2 10 5 22 12 NNW 0,0
17.01.2019 13:00:00 7,1 5,1 6 4 16 9 NW -
17.01.2019 12:00:00 5,2 5,0 6 3 8 4 WNW 0,0
17.01.2019 11:00:00 4,7 4,6 6 3 8 5 WNW 0,0
17.01.2019 10:00:00 3,9 3,8 0 0 5 3 ESE 0,0
17.01.2019 09:00:00 3,5 3,4 2 1 4 2 S 0,0
17.01.2019 08:00:00 3,2 3,0 1 1 4 2 NE 0,0
17.01.2019 07:00:00 3,1 3,0 3 1 7 4 E -
17.01.2019 06:00:00 1,9 1,7 1 0 7 4 NE 0,0
17.01.2019 05:00:00 1,7 1,5 1 1 7 4 SSW 0,0
17.01.2019 04:00:00 1,9 1,7 1 0 9 5 WNW 0,0
17.01.2019 03:00:00 1,7 1,5 2 1 11 6 E 0,0
17.01.2019 02:00:00 1,6 1,5 5 3 9 5 SW 0,0
17.01.2019 01:00:00 1,0 0,9 6 3 7 4 ENE -
17.01.2019 00:00:00 0,4 0,2 4 2 6 3 E 0,0
16.01.2019 23:00:00 1,3 1,1 2 1 8 5 ESE 0,0
16.01.2019 22:00:00 1,5 1,3 6 3 8 4 ENE 0,0
16.01.2019 21:00:00 1,8 1,7 4 2 9 5 ENE 0,0
16.01.2019 20:00:00 2,0 1,7 1 1 9 5 ENE 0,0
16.01.2019 19:00:00 3,0 1,9 1 0 6 3 E -
16.01.2019 18:00:00 5,6 2,9 4 2 9 5 ENE 0,0
16.01.2019 17:00:00 9,3 5,0 6 4 10 5 WNW 0,0
16.01.2019 16:00:00 9,2 5,0 4 2 10 6 W 0,0
16.01.2019 15:00:00 8,9 5,5 5 3 12 7 W 0,0
16.01.2019 14:00:00 8,7 5,5 7 4 10 6 W 0,0
16.01.2019 13:00:00 7,8 5,1 4 2 8 4 W -
16.01.2019 12:00:00 5,8 4,5 4 2 8 4 WNW 0,0
16.01.2019 11:00:00 4,8 3,6 1 1 4 2 WSW 0,0
16.01.2019 10:00:00 1,8 1,7 0 0 6 3 E 0,0
16.01.2019 09:00:00 0,7 0,6 3 2 8 4 E 0,0
16.01.2019 08:00:00 0,1 0,0 1 1 8 4 E 0,0
16.01.2019 07:00:00 0,5 0,4 3 2 5 3 E -
16.01.2019 06:00:00 0,9 0,6 1 1 4 2 E 0,0
16.01.2019 05:00:00 1,8 1,3 3 1 8 5 E 0,0
16.01.2019 04:00:00 1,8 1,5 4 2 5 3 E 0,0
16.01.2019 03:00:00 2,6 1,9 1 1 6 4 SE 0,0
16.01.2019 02:00:00 3,3 2,5 0 0 9 5 E 0,0
16.01.2019 01:00:00 3,6 2,9 1 0 8 4 ENE -
16.01.2019 00:00:00 3,3 2,3 4 2 6 3 E 0,0
15.01.2019 23:00:00 4,1 2,7 1 1 8 4 NNE 0,0
15.01.2019 22:00:00 4,3 3,0 6 3 9 5 E 0,0
15.01.2019 21:00:00 4,2 3,0 7 4 10 5 E 0,0
15.01.2019 20:00:00 4,4 2,9 6 4 8 5 E 0,0
15.01.2019 19:00:00 5,3 3,2 6 3 8 4 E -
15.01.2019 18:00:00 7,9 3,8 1 1 4 2 SE 0,0
15.01.2019 17:00:00 12,1 5,0 3 2 8 5 WSW 0,0
15.01.2019 16:00:00 12,2 5,1 4 2 10 6 W 0,0
15.01.2019 15:00:00 12,3 5,5 5 3 12 7 WNW 0,0
15.01.2019 14:00:00 11,0 4,5 8 4 13 7 SSE 0,0
15.01.2019 13:00:00 9,4 5,1 1 1 9 5 WSW -
15.01.2019 12:00:00 8,2 5,1 2 1 7 4 WSW 0,0
15.01.2019 11:00:00 6,2 5,8 2 1 5 3 SSW 0,0
15.01.2019 10:00:00 2,3 2,1 3 2 7 4 E 0,0
15.01.2019 09:00:00 0,8 0,6 4 2 7 4 E 0,0
15.01.2019 08:00:00 1,2 1,1 3 2 6 3 E 0,0
15.01.2019 07:00:00 2,4 2,3 2 1 9 5 SE -
15.01.2019 06:00:00 4,0 3,8 6 3 11 6 W 0,0
15.01.2019 05:00:00 5,0 4,3 6 3 15 8 W 0,0
15.01.2019 04:00:00 6,1 5,6 7 4 19 10 NNW 0,0
15.01.2019 03:00:00 5,2 5,0 5 3 11 6 W 0,0
15.01.2019 02:00:00 5,4 5,1 1 1 14 7 SW 0,0
15.01.2019 01:00:00 6,3 5,9 3 2 10 6 SSW -
15.01.2019 00:00:00 7,4 7,0 4 2 11 6 N 0,0
14.01.2019 23:00:00 7,1 6,4 1 0 10 5 S 0,0
14.01.2019 22:00:00 7,1 5,9 5 3 15 8 NW 0,0
14.01.2019 21:00:00 8,0 6,2 9 5 18 10 N 0,0
14.01.2019 20:00:00 8,2 6,7 6 4 14 8 NNW 0,0
14.01.2019 19:00:00 8,3 7,0 5 3 17 9 NW -
14.01.2019 18:00:00 8,7 7,0 9 5 21 11 NW 0,0
14.01.2019 17:00:00 8,9 6,7 11 6 26 14 NNW 0,0
14.01.2019 16:00:00 9,1 6,8 10 5 29 15 NW 0,0
14.01.2019 15:00:00 9,6 6,2 8 5 29 16 N 0,0
14.01.2019 14:00:00 9,4 6,7 14 8 31 17 N 0,0
14.01.2019 13:00:00 - - - - - - - -
14.01.2019 12:00:00 9,3 7,4 11 6 26 14 N 0,0
14.01.2019 11:00:00 8,8 7,3 11 6 28 15 NNW 0,0
14.01.2019 10:00:00 7,8 7,4 11 6 17 9 NNW 0,0
14.01.2019 09:00:00 7,3 6,8 8 5 20 11 NNW 0,0
14.01.2019 08:00:00 7,2 6,5 7 4 16 9 NNW 0,0
14.01.2019 07:00:00 7,3 6,5 10 5 19 10 N -
14.01.2019 06:00:00 7,3 6,4 10 5 18 10 NNW 0,0
14.01.2019 05:00:00 7,3 6,4 9 5 18 10 NNW 0,0
14.01.2019 04:00:00 6,9 6,5 6 3 14 8 NNW 0,0
14.01.2019 03:00:00 6,8 6,5 6 4 12 7 NNW 0,0
14.01.2019 02:00:00 6,8 6,2 6 3 13 7 NNW 0,0
14.01.2019 01:00:00 7,1 6,2 5 3 13 7 NNW -
14.01.2019 00:00:00 7,3 6,2 4 2 13 7 WNW 0,0
13.01.2019 23:00:00 7,2 6,2 8 4 18 10 W 0,0
13.01.2019 22:00:00 7,3 6,4 7 4 12 6 WNW 0,0
13.01.2019 21:00:00 7,1 6,4 7 4 10 5 WSW 0,0
13.01.2019 20:00:00 7,3 6,5 3 2 9 5 NNW 0,0
13.01.2019 19:00:00 7,5 6,5 5 3 16 8 NNW -
13.01.2019 18:00:00 8,3 6,4 11 6 23 12 N 0,0
13.01.2019 17:00:00 8,5 6,7 8 5 24 13 NNW 0,0
13.01.2019 16:00:00 9,0 6,5 10 6 27 14 N 0,0
13.01.2019 15:00:00 8,4 7,1 11 6 19 10 NW 0,0
13.01.2019 14:00:00 7,8 6,8 8 4 18 10 NW 0,0
13.01.2019 13:00:00 7,9 6,7 10 5 24 13 NNW -
13.01.2019 12:00:00 8,2 6,1 11 6 23 13 N 0,0
13.01.2019 11:00:00 7,3 5,8 10 5 19 10 N 0,0
13.01.2019 10:00:00 6,7 5,5 6 4 15 8 NNW 0,0
13.01.2019 09:00:00 6,3 5,0 11 6 18 10 NNW 0,0
13.01.2019 08:00:00 6,1 4,6 9 5 20 11 N 0,0
13.01.2019 07:00:00 6,1 4,1 8 4 19 10 N -
13.01.2019 06:00:00 6,1 3,8 11 6 25 13 N 0,0
13.01.2019 05:00:00 6,3 3,6 9 5 20 11 N 0,0
13.01.2019 04:00:00 6,2 3,9 9 5 26 14 N 0,0
13.01.2019 03:00:00 6,0 3,9 13 7 31 17 N 0,0
13.01.2019 02:00:00 6,3 3,4 12 6 22 12 N 0,0
13.01.2019 01:00:00 6,3 2,5 10 5 21 11 NNW -
13.01.2019 00:00:00 6,4 2,3 11 6 25 13 N 0,0
12.01.2019 23:00:00 6,4 3,2 9 5 21 11 N 0,0
12.01.2019 22:00:00 6,2 3,9 8 4 22 12 N 0,0
12.01.2019 21:00:00 6,0 2,9 7 4 18 10 NW 0,0
12.01.2019 20:00:00 5,9 2,1 10 6 21 11 NNW 0,0
12.01.2019 19:00:00 5,9 2,1 6 3 19 10 NNW -
12.01.2019 18:00:00 6,2 1,3 8 4 25 14 NNE 0,0
12.01.2019 17:00:00 7,0 1,5 11 6 33 18 N 0,0
12.01.2019 16:00:00 7,4 1,7 9 5 25 14 NNE 0,0
12.01.2019 15:00:00 7,3 1,7 13 7 31 17 N 0,0
12.01.2019 14:00:00 8,5 2,1 9 5 34 18 NE 0,0
12.01.2019 13:00:00 8,4 2,3 8 4 24 13 N -
12.01.2019 12:00:00 7,8 2,5 8 4 21 11 N 0,0

tt = Température de l'air
td = dewpoint
ff = Vitesse du vent
fx = gusts
dd = Direction du vent
rr = Quantités de précipitations

stations d'obs. à proximité